sensor_id;sensor_type;location;lat;lon;timestamp;P1;durP1;ratioP1;P2;durP2;ratioP2
18711;SDS011;9485;49.386;8.674;2023-07-22T00:02:17;1.75;;;1.40;;
18711;SDS011;9485;49.386;8.674;2023-07-22T00:07:39;1.33;;;1.23;;
18711;SDS011;9485;49.386;8.674;2023-07-22T00:13:00;1.70;;;1.30;;
18711;SDS011;9485;49.386;8.674;2023-07-22T00:18:22;1.40;;;1.30;;
18711;SDS011;9485;49.386;8.674;2023-07-22T00:23:43;1.73;;;1.42;;
18711;SDS011;9485;49.386;8.674;2023-07-22T00:29:05;1.48;;;1.38;;
18711;SDS011;9485;49.386;8.674;2023-07-22T00:34:27;1.67;;;1.58;;
18711;SDS011;9485;49.386;8.674;2023-07-22T00:39:48;2.20;;;1.80;;
18711;SDS011;9485;49.386;8.674;2023-07-22T00:45:10;1.42;;;1.33;;
18711;SDS011;9485;49.386;8.674;2023-07-22T00:50:32;2.08;;;1.60;;
18711;SDS011;9485;49.386;8.674;2023-07-22T00:55:53;1.77;;;1.30;;
18711;SDS011;9485;49.386;8.674;2023-07-22T01:01:14;1.50;;;1.40;;
18711;SDS011;9485;49.386;8.674;2023-07-22T01:06:36;2.53;;;1.40;;
18711;SDS011;9485;49.386;8.674;2023-07-22T01:11:57;1.95;;;1.40;;
18711;SDS011;9485;49.386;8.674;2023-07-22T01:17:18;1.40;;;1.30;;
18711;SDS011;9485;49.386;8.674;2023-07-22T01:22:40;1.40;;;1.30;;
18711;SDS011;9485;49.386;8.674;2023-07-22T01:28:04;1.80;;;1.50;;
18711;SDS011;9485;49.386;8.674;2023-07-22T01:33:30;1.55;;;1.33;;
18711;SDS011;9485;49.386;8.674;2023-07-22T01:38:51;1.75;;;1.65;;
18711;SDS011;9485;49.386;8.674;2023-07-22T01:44:13;1.42;;;1.33;;
18711;SDS011;9485;49.386;8.674;2023-07-22T01:49:33;1.48;;;1.38;;
18711;SDS011;9485;49.386;8.674;2023-07-22T01:54:54;1.50;;;1.40;;
18711;SDS011;9485;49.386;8.674;2023-07-22T02:00:16;2.13;;;1.42;;
18711;SDS011;9485;49.386;8.674;2023-07-22T02:05:39;1.83;;;1.35;;
18711;SDS011;9485;49.386;8.674;2023-07-22T02:11:00;1.30;;;1.20;;
18711;SDS011;9485;49.386;8.674;2023-07-22T02:16:25;3.58;;;1.45;;
18711;SDS011;9485;49.386;8.674;2023-07-22T02:21:45;3.28;;;1.80;;
18711;SDS011;9485;49.386;8.674;2023-07-22T02:27:06;1.73;;;1.50;;
18711;SDS011;9485;49.386;8.674;2023-07-22T02:32:29;3.17;;;1.88;;
18711;SDS011;9485;49.386;8.674;2023-07-22T02:37:49;1.63;;;1.50;;
18711;SDS011;9485;49.386;8.674;2023-07-22T02:43:10;1.73;;;1.50;;
18711;SDS011;9485;49.386;8.674;2023-07-22T02:48:32;1.73;;;1.48;;
18711;SDS011;9485;49.386;8.674;2023-07-22T02:53:53;1.60;;;1.50;;
18711;SDS011;9485;49.386;8.674;2023-07-22T02:59:13;1.60;;;1.50;;
18711;SDS011;9485;49.386;8.674;2023-07-22T03:04:35;1.85;;;1.75;;
18711;SDS011;9485;49.386;8.674;2023-07-22T03:09:56;1.77;;;1.67;;
18711;SDS011;9485;49.386;8.674;2023-07-22T03:15:17;2.17;;;2.03;;
18711;SDS011;9485;49.386;8.674;2023-07-22T03:20:39;2.58;;;2.00;;
18711;SDS011;9485;49.386;8.674;2023-07-22T03:26:00;2.13;;;1.95;;
18711;SDS011;9485;49.386;8.674;2023-07-22T03:31:21;2.30;;;1.95;;
18711;SDS011;9485;49.386;8.674;2023-07-22T03:36:43;2.38;;;1.95;;
18711;SDS011;9485;49.386;8.674;2023-07-22T03:42:05;2.25;;;1.83;;
18711;SDS011;9485;49.386;8.674;2023-07-22T03:47:26;2.78;;;1.83;;
18711;SDS011;9485;49.386;8.674;2023-07-22T03:52:48;2.63;;;1.80;;
18711;SDS011;9485;49.386;8.674;2023-07-22T03:58:08;1.85;;;1.75;;
18711;SDS011;9485;49.386;8.674;2023-07-22T04:03:29;2.28;;;2.05;;
18711;SDS011;9485;49.386;8.674;2023-07-22T04:08:51;2.35;;;1.90;;
18711;SDS011;9485;49.386;8.674;2023-07-22T04:14:12;2.80;;;1.80;;
18711;SDS011;9485;49.386;8.674;2023-07-22T04:19:33;1.88;;;1.77;;
18711;SDS011;9485;49.386;8.674;2023-07-22T04:24:55;3.47;;;2.05;;
18711;SDS011;9485;49.386;8.674;2023-07-22T04:30:16;2.40;;;2.17;;
18711;SDS011;9485;49.386;8.674;2023-07-22T04:35:40;2.70;;;2.27;;
18711;SDS011;9485;49.386;8.674;2023-07-22T04:41:04;2.33;;;1.88;;
18711;SDS011;9485;49.386;8.674;2023-07-22T04:46:24;2.20;;;2.00;;
18711;SDS011;9485;49.386;8.674;2023-07-22T04:51:46;3.13;;;2.17;;
18711;SDS011;9485;49.386;8.674;2023-07-22T04:57:09;2.50;;;1.70;;
18711;SDS011;9485;49.386;8.674;2023-07-22T05:02:32;3.50;;;2.20;;
18711;SDS011;9485;49.386;8.674;2023-07-22T05:07:52;2.35;;;1.88;;
18711;SDS011;9485;49.386;8.674;2023-07-22T05:13:16;2.10;;;1.80;;
18711;SDS011;9485;49.386;8.674;2023-07-22T05:18:38;3.33;;;2.70;;
18711;SDS011;9485;49.386;8.674;2023-07-22T05:24:00;2.50;;;2.30;;
18711;SDS011;9485;49.386;8.674;2023-07-22T05:29:24;2.20;;;1.80;;
18711;SDS011;9485;49.386;8.674;2023-07-22T05:34:46;2.65;;;2.03;;
18711;SDS011;9485;49.386;8.674;2023-07-22T05:40:07;2.20;;;2.00;;
18711;SDS011;9485;49.386;8.674;2023-07-22T05:45:30;1.92;;;1.73;;
18711;SDS011;9485;49.386;8.674;2023-07-22T05:50:51;1.90;;;1.70;;
18711;SDS011;9485;49.386;8.674;2023-07-22T05:56:13;2.05;;;1.73;;
18711;SDS011;9485;49.386;8.674;2023-07-22T06:01:36;2.35;;;1.92;;
18711;SDS011;9485;49.386;8.674;2023-07-22T06:06:57;1.90;;;1.73;;
18711;SDS011;9485;49.386;8.674;2023-07-22T06:12:18;2.00;;;1.83;;
18711;SDS011;9485;49.386;8.674;2023-07-22T06:17:43;3.47;;;1.73;;
18711;SDS011;9485;49.386;8.674;2023-07-22T06:23:04;3.08;;;2.20;;
18711;SDS011;9485;49.386;8.674;2023-07-22T06:28:25;4.45;;;1.73;;
18711;SDS011;9485;49.386;8.674;2023-07-22T06:33:47;2.33;;;2.13;;
18711;SDS011;9485;49.386;8.674;2023-07-22T06:39:07;2.20;;;1.70;;
18711;SDS011;9485;49.386;8.674;2023-07-22T06:44:28;2.05;;;1.83;;
18711;SDS011;9485;49.386;8.674;2023-07-22T06:49:50;1.63;;;1.52;;
18711;SDS011;9485;49.386;8.674;2023-07-22T06:55:10;2.75;;;1.67;;
18711;SDS011;9485;49.386;8.674;2023-07-22T07:00:31;4.43;;;1.88;;
18711;SDS011;9485;49.386;8.674;2023-07-22T07:05:53;2.17;;;1.80;;
18711;SDS011;9485;49.386;8.674;2023-07-22T07:11:14;2.42;;;1.40;;
18711;SDS011;9485;49.386;8.674;2023-07-22T07:16:36;2.72;;;1.90;;
18711;SDS011;9485;49.386;8.674;2023-07-22T07:21:58;2.10;;;1.65;;
18711;SDS011;9485;49.386;8.674;2023-07-22T07:27:18;2.05;;;1.48;;
18711;SDS011;9485;49.386;8.674;2023-07-22T07:32:39;2.95;;;1.77;;
18711;SDS011;9485;49.386;8.674;2023-07-22T07:38:02;2.30;;;1.90;;
18711;SDS011;9485;49.386;8.674;2023-07-22T07:43:22;2.35;;;1.80;;
18711;SDS011;9485;49.386;8.674;2023-07-22T07:48:44;1.85;;;1.65;;
18711;SDS011;9485;49.386;8.674;2023-07-22T07:54:06;1.65;;;1.48;;
18711;SDS011;9485;49.386;8.674;2023-07-22T07:59:27;2.13;;;1.80;;
18711;SDS011;9485;49.386;8.674;2023-07-22T08:04:48;3.03;;;1.60;;
18711;SDS011;9485;49.386;8.674;2023-07-22T08:10:10;2.40;;;1.83;;
18711;SDS011;9485;49.386;8.674;2023-07-22T08:15:31;2.50;;;1.95;;
18711;SDS011;9485;49.386;8.674;2023-07-22T08:20:53;2.05;;;1.60;;
18711;SDS011;9485;49.386;8.674;2023-07-22T08:26:16;2.03;;;1.60;;
18711;SDS011;9485;49.386;8.674;2023-07-22T08:31:40;1.83;;;1.67;;
18711;SDS011;9485;49.386;8.674;2023-07-22T08:37:01;3.25;;;1.90;;
18711;SDS011;9485;49.386;8.674;2023-07-22T08:42:23;2.33;;;2.13;;
18711;SDS011;9485;49.386;8.674;2023-07-22T08:47:47;2.08;;;1.80;;
18711;SDS011;9485;49.386;8.674;2023-07-22T08:53:10;1.88;;;1.70;;
18711;SDS011;9485;49.386;8.674;2023-07-22T08:58:33;1.65;;;1.48;;
18711;SDS011;9485;49.386;8.674;2023-07-22T09:03:55;1.63;;;1.50;;
18711;SDS011;9485;49.386;8.674;2023-07-22T09:09:17;1.92;;;1.75;;
18711;SDS011;9485;49.386;8.674;2023-07-22T09:14:40;1.60;;;1.50;;
18711;SDS011;9485;49.386;8.674;2023-07-22T09:20:03;2.22;;;1.40;;
18711;SDS011;9485;49.386;8.674;2023-07-22T09:25:26;1.60;;;1.50;;
18711;SDS011;9485;49.386;8.674;2023-07-22T09:30:49;1.95;;;1.60;;
18711;SDS011;9485;49.386;8.674;2023-07-22T09:36:22;1.55;;;1.42;;
18711;SDS011;9485;49.386;8.674;2023-07-22T09:41:43;1.90;;;1.75;;
18711;SDS011;9485;49.386;8.674;2023-07-22T09:47:07;1.98;;;1.67;;
18711;SDS011;9485;49.386;8.674;2023-07-22T09:52:28;1.85;;;1.55;;
18711;SDS011;9485;49.386;8.674;2023-07-22T09:57:49;1.42;;;1.33;;
18711;SDS011;9485;49.386;8.674;2023-07-22T10:03:15;2.22;;;1.30;;
18711;SDS011;9485;49.386;8.674;2023-07-22T10:08:39;2.92;;;1.73;;
18711;SDS011;9485;49.386;8.674;2023-07-22T10:14:04;4.22;;;1.35;;
18711;SDS011;9485;49.386;8.674;2023-07-22T10:19:27;1.88;;;1.45;;
18711;SDS011;9485;49.386;8.674;2023-07-22T10:24:48;1.40;;;1.13;;
18711;SDS011;9485;49.386;8.674;2023-07-22T10:30:12;1.25;;;1.15;;
18711;SDS011;9485;49.386;8.674;2023-07-22T10:35:40;2.17;;;1.50;;
18711;SDS011;9485;49.386;8.674;2023-07-22T10:41:11;1.20;;;1.10;;
18711;SDS011;9485;49.386;8.674;2023-07-22T10:46:33;1.63;;;1.20;;
18711;SDS011;9485;49.386;8.674;2023-07-22T10:51:59;2.65;;;1.30;;
18711;SDS011;9485;49.386;8.674;2023-07-22T10:57:22;1.48;;;1.38;;
18711;SDS011;9485;49.386;8.674;2023-07-22T11:02:44;1.63;;;1.00;;
18711;SDS011;9485;49.386;8.674;2023-07-22T11:08:39;1.75;;;1.27;;
18711;SDS011;9485;49.386;8.674;2023-07-22T11:14:11;1.33;;;1.15;;
18711;SDS011;9485;49.386;8.674;2023-07-22T11:19:34;1.75;;;1.20;;
18711;SDS011;9485;49.386;8.674;2023-07-22T11:24:57;1.35;;;1.10;;
18711;SDS011;9485;49.386;8.674;2023-07-22T11:30:18;1.48;;;1.25;;
18711;SDS011;9485;49.386;8.674;2023-07-22T11:35:42;1.52;;;1.42;;
18711;SDS011;9485;49.386;8.674;2023-07-22T11:41:03;1.25;;;1.10;;
18711;SDS011;9485;49.386;8.674;2023-07-22T11:46:25;1.40;;;1.30;;
18711;SDS011;9485;49.386;8.674;2023-07-22T11:51:46;1.15;;;1.05;;
18711;SDS011;9485;49.386;8.674;2023-07-22T11:57:12;1.30;;;1.17;;
18711;SDS011;9485;49.386;8.674;2023-07-22T12:02:35;1.83;;;1.30;;
18711;SDS011;9485;49.386;8.674;2023-07-22T12:07:56;1.38;;;1.25;;
18711;SDS011;9485;49.386;8.674;2023-07-22T12:13:18;1.40;;;1.20;;
18711;SDS011;9485;49.386;8.674;2023-07-22T12:18:42;1.25;;;1.15;;
18711;SDS011;9485;49.386;8.674;2023-07-22T12:24:04;1.90;;;1.10;;
18711;SDS011;9485;49.386;8.674;2023-07-22T12:29:25;1.17;;;1.08;;
18711;SDS011;9485;49.386;8.674;2023-07-22T12:34:46;1.20;;;1.10;;
18711;SDS011;9485;49.386;8.674;2023-07-22T12:40:07;2.72;;;1.10;;
18711;SDS011;9485;49.386;8.674;2023-07-22T12:45:31;2.00;;;1.27;;
18711;SDS011;9485;49.386;8.674;2023-07-22T12:50:51;1.35;;;1.20;;
18711;SDS011;9485;49.386;8.674;2023-07-22T12:56:12;1.38;;;0.95;;
18711;SDS011;9485;49.386;8.674;2023-07-22T13:01:33;1.10;;;1.00;;
18711;SDS011;9485;49.386;8.674;2023-07-22T13:06:57;1.42;;;1.30;;
18711;SDS011;9485;49.386;8.674;2023-07-22T13:12:18;1.05;;;1.00;;
18711;SDS011;9485;49.386;8.674;2023-07-22T13:17:40;2.53;;;1.33;;
18711;SDS011;9485;49.386;8.674;2023-07-22T13:23:01;4.22;;;1.17;;
18711;SDS011;9485;49.386;8.674;2023-07-22T13:28:21;1.30;;;1.17;;
18711;SDS011;9485;49.386;8.674;2023-07-22T13:33:43;1.27;;;1.17;;
18711;SDS011;9485;49.386;8.674;2023-07-22T13:39:04;1.75;;;1.40;;
18711;SDS011;9485;49.386;8.674;2023-07-22T13:44:24;1.20;;;1.10;;
18711;SDS011;9485;49.386;8.674;2023-07-22T13:49:46;1.45;;;1.30;;
18711;SDS011;9485;49.386;8.674;2023-07-22T13:55:07;1.45;;;1.25;;
18711;SDS011;9485;49.386;8.674;2023-07-22T14:00:28;1.67;;;1.48;;
18711;SDS011;9485;49.386;8.674;2023-07-22T14:05:50;2.08;;;1.58;;
18711;SDS011;9485;49.386;8.674;2023-07-22T14:11:11;2.08;;;1.70;;
18711;SDS011;9485;49.386;8.674;2023-07-22T14:16:32;1.55;;;1.45;;
18711;SDS011;9485;49.386;8.674;2023-07-22T14:21:54;1.50;;;1.33;;
18711;SDS011;9485;49.386;8.674;2023-07-22T14:27:14;1.80;;;1.70;;
18711;SDS011;9485;49.386;8.674;2023-07-22T14:32:35;3.28;;;1.65;;
18711;SDS011;9485;49.386;8.674;2023-07-22T14:37:59;1.45;;;1.35;;
18711;SDS011;9485;49.386;8.674;2023-07-22T14:43:20;3.05;;;1.55;;
18711;SDS011;9485;49.386;8.674;2023-07-22T14:48:41;2.15;;;1.50;;
18711;SDS011;9485;49.386;8.674;2023-07-22T14:54:05;8.82;;;7.85;;
18711;SDS011;9485;49.386;8.674;2023-07-22T14:59:25;4.88;;;3.72;;
18711;SDS011;9485;49.386;8.674;2023-07-22T15:04:46;3.97;;;2.30;;
18711;SDS011;9485;49.386;8.674;2023-07-22T15:10:08;3.85;;;2.85;;
18711;SDS011;9485;49.386;8.674;2023-07-22T15:15:30;1.95;;;1.77;;
18711;SDS011;9485;49.386;8.674;2023-07-22T15:20:50;1.90;;;1.50;;
18711;SDS011;9485;49.386;8.674;2023-07-22T15:26:13;2.85;;;1.60;;
18711;SDS011;9485;49.386;8.674;2023-07-22T15:31:33;1.98;;;1.80;;
18711;SDS011;9485;49.386;8.674;2023-07-22T15:36:54;1.92;;;1.75;;
18711;SDS011;9485;49.386;8.674;2023-07-22T15:42:16;3.53;;;1.77;;
18711;SDS011;9485;49.386;8.674;2023-07-22T15:47:37;2.60;;;1.92;;
18711;SDS011;9485;49.386;8.674;2023-07-22T15:52:58;2.30;;;2.05;;
18711;SDS011;9485;49.386;8.674;2023-07-22T15:58:19;2.58;;;2.25;;
18711;SDS011;9485;49.386;8.674;2023-07-22T16:03:40;2.63;;;2.25;;
18711;SDS011;9485;49.386;8.674;2023-07-22T16:09:01;2.45;;;1.80;;
18711;SDS011;9485;49.386;8.674;2023-07-22T16:14:23;2.17;;;1.90;;
18711;SDS011;9485;49.386;8.674;2023-07-22T16:19:44;2.75;;;1.98;;
18711;SDS011;9485;49.386;8.674;2023-07-22T16:25:05;2.08;;;1.67;;
18711;SDS011;9485;49.386;8.674;2023-07-22T16:30:29;2.38;;;1.73;;
18711;SDS011;9485;49.386;8.674;2023-07-22T16:35:50;2.92;;;1.92;;
18711;SDS011;9485;49.386;8.674;2023-07-22T16:41:10;2.85;;;2.28;;
18711;SDS011;9485;49.386;8.674;2023-07-22T16:46:32;2.17;;;1.98;;
18711;SDS011;9485;49.386;8.674;2023-07-22T16:51:53;3.45;;;2.05;;
18711;SDS011;9485;49.386;8.674;2023-07-22T16:57:14;2.70;;;2.17;;
18711;SDS011;9485;49.386;8.674;2023-07-22T17:02:36;2.80;;;2.15;;
18711;SDS011;9485;49.386;8.674;2023-07-22T17:07:57;2.72;;;2.00;;
18711;SDS011;9485;49.386;8.674;2023-07-22T17:13:19;2.33;;;2.13;;
18711;SDS011;9485;49.386;8.674;2023-07-22T17:18:41;3.03;;;2.47;;
18711;SDS011;9485;49.386;8.674;2023-07-22T17:24:03;2.10;;;1.92;;
18711;SDS011;9485;49.386;8.674;2023-07-22T17:29:32;2.70;;;1.77;;
18711;SDS011;9485;49.386;8.674;2023-07-22T17:35:06;2.53;;;2.13;;
18711;SDS011;9485;49.386;8.674;2023-07-22T17:40:32;3.55;;;2.00;;
18711;SDS011;9485;49.386;8.674;2023-07-22T17:46:05;2.80;;;2.10;;
18711;SDS011;9485;49.386;8.674;2023-07-22T17:51:37;2.30;;;2.05;;
18711;SDS011;9485;49.386;8.674;2023-07-22T17:57:08;2.25;;;1.73;;
18711;SDS011;9485;49.386;8.674;2023-07-22T18:02:39;2.83;;;2.10;;
18711;SDS011;9485;49.386;8.674;2023-07-22T18:08:01;3.17;;;2.15;;
18711;SDS011;9485;49.386;8.674;2023-07-22T18:13:23;2.38;;;1.77;;
18711;SDS011;9485;49.386;8.674;2023-07-22T18:18:44;3.85;;;1.88;;
18711;SDS011;9485;49.386;8.674;2023-07-22T18:24:06;2.00;;;1.60;;
18711;SDS011;9485;49.386;8.674;2023-07-22T18:29:28;1.88;;;1.63;;
18711;SDS011;9485;49.386;8.674;2023-07-22T18:34:49;2.25;;;1.70;;
18711;SDS011;9485;49.386;8.674;2023-07-22T18:40:11;1.70;;;1.60;;
18711;SDS011;9485;49.386;8.674;2023-07-22T18:45:32;3.33;;;2.30;;
18711;SDS011;9485;49.386;8.674;2023-07-22T18:50:53;2.90;;;1.83;;
18711;SDS011;9485;49.386;8.674;2023-07-22T18:56:16;2.78;;;2.10;;
18711;SDS011;9485;49.386;8.674;2023-07-22T19:01:37;3.05;;;1.85;;
18711;SDS011;9485;49.386;8.674;2023-07-22T19:06:58;1.80;;;1.70;;
18711;SDS011;9485;49.386;8.674;2023-07-22T19:12:21;2.85;;;2.00;;
18711;SDS011;9485;49.386;8.674;2023-07-22T19:17:45;4.72;;;2.90;;
18711;SDS011;9485;49.386;8.674;2023-07-22T19:23:09;2.30;;;1.83;;
18711;SDS011;9485;49.386;8.674;2023-07-22T19:28:32;2.95;;;2.17;;
18711;SDS011;9485;49.386;8.674;2023-07-22T19:33:53;2.60;;;2.15;;
18711;SDS011;9485;49.386;8.674;2023-07-22T19:39:17;2.63;;;2.38;;
18711;SDS011;9485;49.386;8.674;2023-07-22T19:44:39;3.70;;;2.53;;
18711;SDS011;9485;49.386;8.674;2023-07-22T19:49:59;3.10;;;2.50;;
18711;SDS011;9485;49.386;8.674;2023-07-22T19:55:20;2.92;;;2.63;;
18711;SDS011;9485;49.386;8.674;2023-07-22T20:00:43;3.97;;;2.47;;
18711;SDS011;9485;49.386;8.674;2023-07-22T20:06:04;2.53;;;2.33;;
18711;SDS011;9485;49.386;8.674;2023-07-22T20:11:26;2.90;;;2.60;;
18711;SDS011;9485;49.386;8.674;2023-07-22T20:16:48;2.53;;;2.28;;
18711;SDS011;9485;49.386;8.674;2023-07-22T20:22:09;2.63;;;2.08;;
18711;SDS011;9485;49.386;8.674;2023-07-22T20:27:30;2.17;;;1.98;;
18711;SDS011;9485;49.386;8.674;2023-07-22T20:32:58;2.38;;;2.05;;
18711;SDS011;9485;49.386;8.674;2023-07-22T20:38:20;3.78;;;2.63;;
18711;SDS011;9485;49.386;8.674;2023-07-22T20:43:41;3.63;;;2.97;;
18711;SDS011;9485;49.386;8.674;2023-07-22T20:49:03;2.88;;;2.50;;
18711;SDS011;9485;49.386;8.674;2023-07-22T20:54:27;2.83;;;2.50;;
18711;SDS011;9485;49.386;8.674;2023-07-22T20:59:53;2.72;;;2.45;;
18711;SDS011;9485;49.386;8.674;2023-07-22T21:05:19;3.40;;;2.15;;
18711;SDS011;9485;49.386;8.674;2023-07-22T21:10:40;3.38;;;2.50;;
18711;SDS011;9485;49.386;8.674;2023-07-22T21:16:03;3.05;;;2.20;;
18711;SDS011;9485;49.386;8.674;2023-07-22T21:21:25;3.00;;;2.17;;
18711;SDS011;9485;49.386;8.674;2023-07-22T21:26:46;2.40;;;2.20;;
18711;SDS011;9485;49.386;8.674;2023-07-22T21:32:07;3.10;;;1.98;;
18711;SDS011;9485;49.386;8.674;2023-07-22T21:37:30;2.20;;;1.98;;
18711;SDS011;9485;49.386;8.674;2023-07-22T21:42:51;3.20;;;2.63;;
18711;SDS011;9485;49.386;8.674;2023-07-22T21:48:12;3.15;;;2.35;;
18711;SDS011;9485;49.386;8.674;2023-07-22T21:53:35;2.50;;;2.10;;
18711;SDS011;9485;49.386;8.674;2023-07-22T21:58:56;3.40;;;2.65;;
18711;SDS011;9485;49.386;8.674;2023-07-22T22:04:18;4.13;;;2.63;;
18711;SDS011;9485;49.386;8.674;2023-07-22T22:09:40;2.88;;;2.50;;
18711;SDS011;9485;49.386;8.674;2023-07-22T22:15:04;3.05;;;2.75;;
18711;SDS011;9485;49.386;8.674;2023-07-22T22:20:26;4.32;;;3.05;;
18711;SDS011;9485;49.386;8.674;2023-07-22T22:25:48;2.60;;;2.28;;
18711;SDS011;9485;49.386;8.674;2023-07-22T22:31:09;3.65;;;2.88;;
18711;SDS011;9485;49.386;8.674;2023-07-22T22:36:31;4.05;;;3.08;;
18711;SDS011;9485;49.386;8.674;2023-07-22T22:41:53;2.83;;;2.40;;
18711;SDS011;9485;49.386;8.674;2023-07-22T22:47:22;4.18;;;2.55;;
18711;SDS011;9485;49.386;8.674;2023-07-22T22:52:46;3.63;;;2.90;;
18711;SDS011;9485;49.386;8.674;2023-07-22T22:58:08;2.88;;;2.38;;
18711;SDS011;9485;49.386;8.674;2023-07-22T23:03:29;3.92;;;2.90;;
18711;SDS011;9485;49.386;8.674;2023-07-22T23:08:49;4.35;;;2.65;;
18711;SDS011;9485;49.386;8.674;2023-07-22T23:14:14;4.38;;;3.28;;
18711;SDS011;9485;49.386;8.674;2023-07-22T23:19:37;2.95;;;2.63;;
18711;SDS011;9485;49.386;8.674;2023-07-22T23:25:06;3.10;;;2.63;;
18711;SDS011;9485;49.386;8.674;2023-07-22T23:30:35;5.40;;;2.97;;
18711;SDS011;9485;49.386;8.674;2023-07-22T23:36:04;4.68;;;3.05;;
18711;SDS011;9485;49.386;8.674;2023-07-22T23:41:34;3.47;;;2.70;;
18711;SDS011;9485;49.386;8.674;2023-07-22T23:47:05;3.33;;;2.35;;
18711;SDS011;9485;49.386;8.674;2023-07-22T23:52:38;2.90;;;2.50;;
18711;SDS011;9485;49.386;8.674;2023-07-22T23:58:08;2.72;;;2.17;;
